Time;durP1;ratioP1;P1;durP2;ratioP2;P2;SDS_P1;SDS_P2;PMS_P1;PMS_P2;Temp;Humidity;BMP_temperature;BMP_pressure;BME280_temperature;BME280_humidity;BME280_pressure;Samples;Min_cycle;Max_cycle;Signal;HPM_P1;HPM_P2
2022/04/25 00:01:59;;;;;;;1.60;0.90;;;;;;;8.91;100.00;95333.06;5062161;28;20233;-86
2022/04/25 00:04:26;;;;;;;2.77;1.10;;;;;;;8.87;100.00;95339.97;5024449;28;20222;-87
2022/04/25 00:06:54;;;;;;;1.40;1.10;;;;;;;8.79;100.00;95338.50;5057002;28;20203;-86
2022/04/25 00:09:21;;;;;;;1.10;1.00;;;;;;;8.73;100.00;95329.53;5024448;28;20222;-86
2022/04/25 00:11:49;;;;;;;4.60;2.80;;;;;;;8.75;100.00;95325.78;5020482;28;20199;-87
2022/04/25 00:14:16;;;;;;;2.93;1.87;;;;;;;8.77;100.00;95331.72;5034243;28;20318;-85
2022/04/25 00:16:43;;;;;;;5.00;1.27;;;;;;;8.80;100.00;95332.06;5042852;28;20257;-86
2022/04/25 00:19:10;;;;;;;1.37;1.17;;;;;;;8.74;100.00;95330.34;5021245;28;20202;-87
2022/04/25 00:21:38;;;;;;;2.23;1.30;;;;;;;8.75;100.00;95318.53;5028249;28;20211;-86
2022/04/25 00:24:07;;;;;;;1.23;1.07;;;;;;;8.77;100.00;95331.72;5028987;28;20221;-87
2022/04/25 00:26:34;;;;;;;1.40;1.20;;;;;;;8.68;100.00;95328.63;5024603;28;20208;-86
2022/04/25 00:29:01;;;;;;;1.63;1.30;;;;;;;8.61;100.00;95323.41;5031965;28;20249;-86
2022/04/25 00:31:28;;;;;;;1.47;1.20;;;;;;;8.56;100.00;95320.63;5034077;28;20209;-86
2022/04/25 00:33:55;;;;;;;0.80;0.80;;;;;;;8.47;100.00;95326.63;5024878;28;20207;-86
2022/04/25 00:36:23;;;;;;;0.87;0.87;;;;;;;8.45;100.00;95320.69;5024209;28;20233;-86
2022/04/25 00:38:50;;;;;;;1.27;1.10;;;;;;;8.49;100.00;95319.16;5035936;28;20203;-86
2022/04/25 00:41:18;;;;;;;0.93;0.90;;;;;;;8.51;100.00;95325.09;5027568;28;20298;-86
2022/04/25 00:43:45;;;;;;;1.77;1.20;;;;;;;8.55;100.00;95321.69;5049015;28;20206;-85
2022/04/25 00:46:21;;;;;;;0.80;0.80;;;;;;;8.52;100.00;95313.28;5023066;28;20208;-86
2022/04/25 00:48:48;;;;;;;1.57;1.07;;;;;;;8.52;100.00;95326.72;5023227;28;20227;-87
2022/04/25 00:51:16;;;;;;;2.00;0.70;;;;;;;8.57;100.00;95327.66;5047730;28;20199;-86
2022/04/25 00:53:45;;;;;;;0.80;0.80;;;;;;;8.54;100.00;95332.69;5055565;28;20294;-86
2022/04/25 00:56:15;;;;;;;2.20;0.90;;;;;;;8.50;100.00;95328.84;5047770;28;20297;-86
2022/04/25 00:58:44;;;;;;;1.07;1.00;;;;;;;8.59;100.00;95333.56;5024641;28;20207;-86
2022/04/25 01:01:11;;;;;;;1.43;1.00;;;;;;;8.65;100.00;95326.44;5038035;28;20194;-86
2022/04/25 01:03:39;;;;;;;1.57;1.10;;;;;;;8.71;100.00;95336.22;5023673;28;20260;-85
2022/04/25 01:06:06;;;;;;;2.10;1.20;;;;;;;8.69;100.00;95335.63;5022324;28;20293;-85
2022/04/25 01:08:36;;;;;;;2.60;0.80;;;;;;;8.67;100.00;95348.53;5053984;28;20224;-85
2022/04/25 01:11:04;;;;;;;1.07;0.97;;;;;;;8.65;100.00;95345.25;5045485;28;20217;-85
2022/04/25 01:13:32;;;;;;;1.10;0.90;;;;;;;8.65;100.00;95339.88;5045059;28;20234;-85
2022/04/25 01:16:00;;;;;;;2.67;0.93;;;;;;;8.65;100.00;95345.25;5028567;28;20264;-85
2022/04/25 01:18:27;;;;;;;1.47;1.00;;;;;;;8.57;100.00;95340.28;5027742;28;20223;-85
2022/04/25 01:20:57;;;;;;;1.20;1.00;;;;;;;8.55;100.00;95339.69;5038512;28;20222;-85
2022/04/25 01:28:55;;;;;;;1.10;1.00;;;;;;;8.66;100.00;95342.34;5033306;28;20227;-86
2022/04/25 01:31:23;;;;;;;1.50;1.00;;;;;;;8.68;100.00;95344.75;5019598;28;20286;-85
2022/04/25 01:33:50;;;;;;;1.10;1.00;;;;;;;8.69;100.00;95341.84;5038325;28;20213;-85
2022/04/25 01:36:17;;;;;;;2.97;1.03;;;;;;;8.63;100.00;95342.81;5019466;28;20195;-85
2022/04/25 01:38:45;;;;;;;1.53;1.20;;;;;;;8.58;100.00;95348.13;5051715;28;20211;-86
2022/04/25 01:41:12;;;;;;;2.57;1.43;;;;;;;8.64;100.00;95355.22;5024447;28;20291;-85
2022/04/25 01:43:40;;;;;;;1.40;1.17;;;;;;;8.69;100.00;95352.59;5027715;28;20301;-86
2022/04/25 01:46:07;;;;;;;1.83;1.30;;;;;;;8.69;100.00;95352.59;5019834;28;20221;-86
2022/04/25 01:48:34;;;;;;;1.87;1.03;;;;;;;8.64;100.00;95362.47;5042918;28;20223;-86
2022/04/25 01:51:01;;;;;;;2.67;1.23;;;;;;;8.60;100.00;95354.03;5024958;28;20203;-86
2022/04/25 01:53:29;;;;;;;1.17;1.00;;;;;;;8.61;100.00;95353.00;5028831;28;20211;-86
2022/04/25 01:56:06;;;;;;;1.80;1.07;;;;;;;8.61;100.00;95349.47;5040956;28;20272;-85
2022/04/25 01:58:34;;;;;;;2.40;1.00;;;;;;;8.55;100.00;95353.97;5058620;28;20199;-85
2022/04/25 02:01:01;;;;;;;0.80;0.80;;;;;;;8.48;100.00;95353.31;5029788;28;20206;-86
2022/04/25 02:03:29;;;;;;;2.80;1.20;;;;;;;8.46;100.00;95358.09;5022115;28;20213;-86
2022/04/25 02:05:56;;;;;;;1.10;0.90;;;;;;;8.40;100.00;95355.56;5026236;28;20285;-86
2022/04/25 02:08:23;;;;;;;0.97;0.83;;;;;;;8.43;100.00;95357.75;5032538;28;20231;-86
2022/04/25 02:13:36;;;;;;;1.10;1.00;;;;;;;8.53;100.00;95361.47;5022173;28;20236;-86
2022/04/25 02:16:03;;;;;;;1.60;1.03;;;;;;;8.48;100.00;95349.81;5038903;28;20242;-86
2022/04/25 02:18:31;;;;;;;1.63;1.20;;;;;;;8.51;100.00;95365.44;5021269;28;20202;-86
2022/04/25 02:20:58;;;;;;;2.20;0.97;;;;;;;8.40;100.00;95360.94;5038687;28;20202;-86
2022/04/25 02:23:25;;;;;;;1.27;1.00;;;;;;;8.43;100.00;95376.59;5063259;28;20219;-86
2022/04/25 02:25:52;;;;;;;1.63;1.27;;;;;;;8.46;100.00;95359.97;5039742;28;20217;-86
2022/04/25 02:28:22;;;;;;;1.90;1.30;;;;;;;8.48;100.00;95355.19;5056005;28;20321;-86
2022/04/25 02:30:51;;;;;;;1.53;1.30;;;;;;;8.51;100.00;95368.94;5036306;28;20246;-86
2022/04/25 02:33:19;;;;;;;2.13;1.00;;;;;;;8.44;100.00;95370.97;5040643;28;20233;-86
2022/04/25 02:35:46;;;;;;;1.43;1.00;;;;;;;8.44;100.00;95376.34;5027091;28;20230;-86
2022/04/25 02:38:13;;;;;;;3.03;1.30;;;;;;;8.42;100.00;95383.84;5057146;28;20209;-87
2022/04/25 02:40:40;;;;;;;2.50;1.20;;;;;;;8.37;100.00;95373.00;5057406;28;20263;-87
2022/04/25 02:43:08;;;;;;;1.90;1.17;;;;;;;8.34;100.00;95371.59;5023867;28;20205;-87
2022/04/25 02:45:36;;;;;;;1.30;1.20;;;;;;;8.45;100.00;95366.41;5027747;28;20214;-86
2022/04/25 02:48:05;;;;;;;3.43;1.23;;;;;;;8.42;100.00;95372.28;5033366;28;20227;-86
2022/04/25 02:50:32;;;;;;;2.23;1.00;;;;;;;8.45;100.00;95379.88;5021789;28;20324;-86
2022/04/25 02:52:59;;;;;;;1.20;0.90;;;;;;;8.45;100.00;95364.53;5037265;28;20210;-86
2022/04/25 02:55:26;;;;;;;3.17;1.10;;;;;;;8.51;100.00;95377.00;5033104;28;20208;-86
2022/04/25 02:57:54;;;;;;;1.67;1.20;;;;;;;8.45;100.00;95371.78;5046712;28;20298;-86
2022/04/25 03:00:21;;;;;;;1.10;1.00;;;;;;;8.55;100.00;95377.38;5036524;28;20285;-86
2022/04/25 03:02:49;;;;;;;1.73;1.10;;;;;;;8.61;100.00;95371.81;5027597;28;20224;-86
2022/04/25 03:05:17;;;;;;;2.03;1.03;;;;;;;8.66;100.00;95373.81;5036760;28;20226;-86
2022/04/25 03:07:44;;;;;;;2.50;1.20;;;;;;;8.70;100.00;95380.31;5024614;28;20218;-86
2022/04/25 03:10:11;;;;;;;3.07;1.10;;;;;;;8.68;100.00;95387.81;5044493;28;20196;-85
2022/04/25 03:12:38;;;;;;;1.40;1.10;;;;;;;8.69;100.00;95392.97;5059807;28;20265;-86
2022/04/25 03:15:07;;;;;;;5.23;1.30;;;;;;;8.65;100.00;95404.47;5040658;28;20206;-87
2022/04/25 03:17:34;;;;;;;1.63;1.40;;;;;;;8.60;100.00;95396.28;5055643;28;20215;-86
2022/04/25 03:20:01;;;;;;;1.10;1.00;;;;;;;8.50;100.00;95409.56;5040420;28;20290;-86
2022/04/25 03:22:29;;;;;;;2.70;1.27;;;;;;;8.38;100.00;95398.03;5039206;28;20206;-85
2022/04/25 03:24:56;;;;;;;2.30;1.33;;;;;;;8.35;100.00;95410.06;5057937;28;20227;-85
2022/04/25 03:27:24;;;;;;;4.43;1.73;;;;;;;8.38;100.00;95404.22;5042022;28;20207;-86
2022/04/25 03:29:51;;;;;;;4.93;1.50;;;;;;;8.43;100.00;95408.88;5041198;28;20229;-85
2022/04/25 03:32:18;;;;;;;4.10;1.10;;;;;;;8.46;100.00;95403.84;5025542;28;20209;-86
2022/04/25 03:34:45;;;;;;;2.67;1.60;;;;;;;8.48;100.00;95417.06;5036891;28;20245;-86
2022/04/25 03:37:13;;;;;;;1.30;1.17;;;;;;;8.50;100.00;95417.63;5021439;28;20215;-85
2022/04/25 03:39:41;;;;;;;2.47;1.40;;;;;;;8.49;100.00;95413.31;5032703;28;20221;-85
2022/04/25 03:42:08;;;;;;;3.00;1.60;;;;;;;8.51;100.00;95411.16;5060359;28;20218;-86
2022/04/25 03:44:35;;;;;;;2.77;1.60;;;;;;;8.47;100.00;95410.03;5052412;28;20191;-85
2022/04/25 03:47:03;;;;;;;1.73;1.60;;;;;;;8.41;100.00;95411.81;5062109;28;20228;-85
2022/04/25 03:49:30;;;;;;;2.50;1.70;;;;;;;8.45;100.00;95417.53;5055436;28;20651;-85
2022/04/25 03:51:57;;;;;;;1.97;1.63;;;;;;;8.37;100.00;95412.53;5032829;28;20207;-86
2022/04/25 03:57:13;;;;;;;4.57;1.50;;;;;;;8.46;100.00;95432.59;5037479;28;20199;-86
2022/04/25 03:59:40;;;;;;;1.77;1.40;;;;;;;8.30;100.00;95434.16;5025804;28;20211;-86
2022/04/25 04:02:07;;;;;;;2.70;1.73;;;;;;;8.30;100.00;95437.66;5025484;28;20301;-86
2022/04/25 04:04:35;;;;;;;2.27;1.20;;;;;;;8.34;100.00;95454.16;5056326;28;20214;-86
2022/04/25 04:07:02;;;;;;;1.30;1.20;;;;;;;8.34;100.00;95444.22;5014251;28;20207;-85
2022/04/25 04:09:49;;;;;;;5.03;1.70;;;;;;;8.39;100.00;95440.81;5013811;28;20229;-85
2022/04/25 04:12:19;;;;;;;3.20;2.27;;;;;;;8.34;100.00;95438.84;5055840;28;20211;-85
2022/04/25 04:14:47;;;;;;;3.10;2.00;;;;;;;8.30;100.00;95445.72;5024189;28;20217;-85
2022/04/25 04:17:14;;;;;;;5.90;2.23;;;;;;;8.41;100.00;95456.72;5023650;28;20206;-85
2022/04/25 04:19:42;;;;;;;2.50;1.57;;;;;;;8.50;100.00;95463.38;5039811;28;20207;-85
2022/04/25 04:22:09;;;;;;;2.00;1.80;;;;;;;8.50;100.00;95466.88;5036368;28;20223;-86
2022/04/25 04:24:37;;;;;;;4.67;3.30;;;;;;;8.48;100.00;95460.91;5054020;28;20284;-86
2022/04/25 04:27:06;;;;;;;5.03;3.10;;;;;;;8.49;100.00;95464.44;5036919;28;20215;-86
2022/04/25 04:29:36;;;;;;;4.70;2.27;;;;;;;8.43;100.00;95473.44;5019422;28;20237;-86
2022/04/25 04:32:06;;;;;;;2.17;1.77;;;;;;;8.26;100.00;95476.81;5019679;28;20222;-86
2022/04/25 04:34:35;;;;;;;2.67;1.87;;;;;;;8.29;100.00;95480.91;5036307;28;20562;-86
2022/04/25 04:37:02;;;;;;;2.73;1.40;;;;;;;8.09;100.00;95480.47;5021665;28;20207;-86
2022/04/25 04:39:31;;;;;;;1.97;1.10;;;;;;;8.22;100.00;95483.75;5022829;28;20605;-86
2022/04/25 04:41:58;;;;;;;2.37;1.13;;;;;;;8.18;100.00;95479.88;5034259;28;20203;-85
2022/04/25 04:44:25;;;;;;;1.80;1.20;;;;;;;8.25;100.00;95485.16;5055177;28;20230;-85
2022/04/25 04:46:54;;;;;;;1.40;1.20;;;;;;;8.23;100.00;95482.69;5017394;28;20210;-86
2022/04/25 04:49:21;;;;;;;2.03;1.53;;;;;;;8.22;100.00;95483.75;5057023;28;20246;-86
2022/04/25 04:51:48;;;;;;;2.43;1.60;;;;;;;8.23;100.00;95488.06;5027385;28;20207;-86
2022/04/25 04:54:15;;;;;;;2.83;1.60;;;;;;;8.27;100.00;95488.41;5039639;28;20225;-85
2022/04/25 04:56:42;;;;;;;1.70;1.30;;;;;;;8.22;100.00;95480.25;5056041;28;20314;-85
2022/04/25 04:59:09;;;;;;;3.70;1.20;;;;;;;8.19;100.00;95481.53;5028108;28;20302;-85
2022/04/25 05:01:36;;;;;;;1.23;1.10;;;;;;;8.04;100.00;95475.81;5023553;28;20243;-85
2022/04/25 05:04:05;;;;;;;3.40;0.93;;;;;;;7.94;100.00;95478.28;5034498;28;20215;-85
2022/04/25 05:06:33;;;;;;;2.20;1.10;;;;;;;7.89;100.00;95480.88;5020370;28;20239;-85
2022/04/25 05:09:00;;;;;;;3.17;1.80;;;;;;;8.04;100.00;95486.56;5046659;28;20474;-85
2022/04/25 05:11:29;;;;;;;1.60;1.40;;;;;;;8.13;100.00;95474.41;5061132;28;20207;-85
2022/04/25 05:13:56;;;;;;;3.13;1.90;;;;;;;8.29;100.00;95486.31;5022194;28;20274;-85
2022/04/25 05:16:23;;;;;;;4.97;2.03;;;;;;;8.24;100.00;95486.22;5020383;28;20518;-85
2022/04/25 05:18:51;;;;;;;3.47;2.03;;;;;;;8.22;100.00;95478.38;5041458;28;20234;-85
2022/04/25 05:21:19;;;;;;;3.87;1.87;;;;;;;8.24;100.00;95488.91;5021703;28;20211;-85
2022/04/25 05:23:46;;;;;;;3.03;1.53;;;;;;;8.18;100.00;95490.63;5050454;28;20228;-85
2022/04/25 05:26:13;;;;;;;3.27;1.70;;;;;;;8.24;100.00;95495.09;5041066;28;20207;-85
2022/04/25 05:28:40;;;;;;;1.50;1.30;;;;;;;8.21;100.00;95500.94;5043304;28;20277;-86
2022/04/25 05:31:07;;;;;;;1.67;1.20;;;;;;;8.12;100.00;95485.38;5021422;28;20235;-85
2022/04/25 05:33:35;;;;;;;1.53;1.10;;;;;;;8.17;100.00;95499.75;5052686;28;20211;-84
2022/04/25 05:36:02;;;;;;;3.17;1.30;;;;;;;8.20;100.00;95490.41;5024753;28;20257;-84
2022/04/25 05:38:30;;;;;;;5.13;1.27;;;;;;;8.14;100.00;95484.13;5020270;28;20206;-84
2022/04/25 05:40:57;;;;;;;1.63;1.03;;;;;;;8.23;100.00;95490.75;5040058;28;20254;-84
2022/04/25 05:43:25;;;;;;;1.47;1.20;;;;;;;8.25;100.00;95493.22;5017276;28;20276;-84
2022/04/25 05:45:52;;;;;;;3.00;1.50;;;;;;;8.16;100.00;95481.19;5054642;28;20206;-84
2022/04/25 05:53:50;;;;;;;4.87;1.47;;;;;;;8.20;100.00;95496.59;5038050;28;20211;-84
2022/04/25 05:56:17;;;;;;;2.37;1.60;;;;;;;8.21;100.00;95490.19;5054829;28;20202;-84
2022/04/25 05:58:44;;;;;;;3.20;1.20;;;;;;;8.17;100.00;95494.38;5052990;28;20234;-83
2022/04/25 06:01:11;;;;;;;0.93;0.83;;;;;;;8.14;100.00;95486.81;5032142;28;20211;-83
2022/04/25 06:03:38;;;;;;;1.87;1.20;;;;;;;8.18;100.00;95492.50;5009665;28;20212;-83
2022/04/25 06:06:06;;;;;;;2.60;1.90;;;;;;;8.16;100.00;95497.31;5052974;28;20214;-83
2022/04/25 06:08:33;;;;;;;1.67;1.40;;;;;;;8.22;100.00;95507.13;5018817;28;20206;-83
2022/04/25 06:11:02;;;;;;;1.60;1.20;;;;;;;8.21;100.00;95517.06;5046401;28;20357;-83
2022/04/25 06:13:29;;;;;;;1.27;1.10;;;;;;;8.27;100.00;95521.50;5038744;28;20313;-83
2022/04/25 06:15:56;;;;;;;4.20;3.87;;;;;;;8.30;100.00;95521.03;5019546;28;20211;-83
2022/04/25 06:18:23;;;;;;;5.87;5.20;;;;;;;8.29;100.00;95518.56;5052386;28;20202;-83
2022/04/25 06:20:51;;;;;;;8.07;7.27;;;;;;;8.37;100.00;95525.50;5018850;28;20203;-84
2022/04/25 06:23:19;;;;;;;5.03;4.53;;;;;;;8.43;100.00;95535.28;5032043;28;20237;-84
2022/04/25 06:25:46;;;;;;;3.77;2.30;;;;;;;8.46;100.00;95534.84;5033969;28;20231;-84
2022/04/25 06:28:14;;;;;;;2.60;2.40;;;;;;;8.40;100.00;95535.78;5019275;28;20211;-84
2022/04/25 06:30:41;;;;;;;2.93;2.00;;;;;;;8.32;100.00;95535.09;5013005;28;20229;-83
2022/04/25 06:33:08;;;;;;;3.20;2.07;;;;;;;8.35;100.00;95539.16;5040012;28;20252;-84
2022/04/25 06:35:36;;;;;;;1.80;1.57;;;;;;;8.38;100.00;95543.28;5024156;28;20204;-83
2022/04/25 06:38:03;;;;;;;2.40;1.70;;;;;;;8.40;100.00;95552.75;5047580;28;20207;-84
2022/04/25 06:40:30;;;;;;;14.77;12.83;;;;;;;8.35;100.00;95556.13;5047769;28;20278;-84
2022/04/25 06:42:59;;;;;;;5.70;5.10;;;;;;;8.38;100.00;95564.78;5051627;28;20202;-83
2022/04/25 06:45:28;;;;;;;3.77;2.40;;;;;;;8.29;100.00;95564.28;5017107;28;20215;-84
2022/04/25 06:47:55;;;;;;;3.57;1.43;;;;;;;8.32;100.00;95571.94;5019102;28;20219;-85
2022/04/25 06:50:23;;;;;;;1.67;1.50;;;;;;;8.27;100.00;95571.78;5051401;28;20271;-85
2022/04/25 06:52:50;;;;;;;2.60;1.30;;;;;;;8.34;100.00;95577.88;5037976;28;20211;-85
2022/04/25 06:55:18;;;;;;;1.63;1.53;;;;;;;8.28;100.00;95576.94;5035149;28;20302;-84
2022/04/25 06:57:45;;;;;;;2.27;1.60;;;;;;;8.29;100.00;95573.19;5023938;28;20310;-85
2022/04/25 07:00:13;;;;;;;3.40;1.43;;;;;;;8.33;100.00;95570.88;5007834;28;20289;-85
2022/04/25 07:02:41;;;;;;;2.17;1.30;;;;;;;8.32;100.00;95571.94;5011682;28;20250;-85
2022/04/25 07:05:09;;;;;;;1.80;1.50;;;;;;;8.37;100.00;95574.72;5032216;28;20206;-85
2022/04/25 07:07:36;;;;;;;3.27;1.50;;;;;;;8.33;100.00;95579.78;5057445;28;20268;-85
2022/04/25 07:10:04;;;;;;;2.07;1.80;;;;;;;8.17;100.00;95566.97;5031304;28;20267;-85
2022/04/25 07:12:31;;;;;;;3.73;1.80;;;;;;;8.12;100.00;95574.94;5034044;28;20231;-85
2022/04/25 07:14:59;;;;;;;2.63;1.60;;;;;;;8.13;100.00;95581.13;5039679;28;20209;-85
2022/04/25 07:17:26;;;;;;;2.40;1.20;;;;;;;8.18;100.00;95592.81;5019146;28;20294;-85
2022/04/25 07:19:55;;;;;;;2.47;1.13;;;;;;;8.20;100.00;95593.41;5035622;28;20601;-84
2022/04/25 07:30:37;;;;;;;1.17;0.90;;;;;;;8.28;100.00;95592.25;5044703;28;20227;-85
2022/04/25 07:33:04;;;;;;;2.53;1.00;;;;;;;8.25;100.00;95598.91;5029685;28;20195;-84
2022/04/25 07:35:34;;;;;;;3.07;1.10;;;;;;;8.19;100.00;95593.63;5037281;28;20297;-85
2022/04/25 07:38:02;;;;;;;2.37;1.63;;;;;;;8.12;100.00;95604.50;5029236;28;20210;-85
2022/04/25 07:40:30;;;;;;;5.00;1.87;;;;;;;8.06;100.00;95596.56;5060448;28;20202;-84
2022/04/25 07:42:57;;;;;;;3.53;1.97;;;;;;;7.98;100.00;95593.19;5024732;28;20210;-84
2022/04/25 07:45:25;;;;;;;4.77;2.00;;;;;;;8.09;100.00;95604.97;5025760;28;20291;-83
2022/04/25 07:47:52;;;;;;;2.97;1.80;;;;;;;8.14;100.00;95599.72;5020535;28;20208;-84
2022/04/25 07:50:23;;;;;;;3.83;2.20;;;;;;;8.15;100.00;95609.44;5042783;28;20230;-84
2022/04/25 07:52:52;;;;;;;4.40;2.70;;;;;;;8.21;100.00;95605.81;5065221;28;20202;-84
2022/04/25 07:55:19;;;;;;;7.40;3.03;;;;;;;8.25;100.00;95617.72;5018390;28;20293;-83
2022/04/25 07:57:46;;;;;;;5.37;2.73;;;;;;;8.24;100.00;95618.81;5026282;28;20211;-84
2022/04/25 08:00:15;;;;;;;10.03;3.23;;;;;;;8.27;100.00;95620.19;5046698;28;20500;-84
2022/04/25 08:02:42;;;;;;;4.43;3.00;;;;;;;8.39;100.00;95626.44;5024335;28;20195;-84
2022/04/25 08:05:09;;;;;;;2.60;2.27;;;;;;;8.35;100.00;95622.56;5033330;28;20235;-84
2022/04/25 08:07:37;;;;;;;1.80;1.50;;;;;;;8.27;100.00;95621.00;5020033;28;20210;-84
2022/04/25 08:10:07;;;;;;;2.97;1.53;;;;;;;8.26;100.00;95627.44;5015270;28;20261;-84
2022/04/25 08:18:06;;;;;;;3.77;1.40;;;;;;;8.37;100.00;95635.78;5054625;28;20313;-83
2022/04/25 08:22:28;;;;;;;5.50;2.13;;;;;;;8.44;100.00;95634.59;5156543;27;20448;-81
2022/04/25 08:24:55;;;;;;;4.10;1.60;;;;;;;8.46;100.00;95643.25;5145062;27;20226;-81
2022/04/25 08:27:22;;;;;;;3.43;1.80;;;;;;;8.48;100.00;95624.22;5136187;27;20253;-81
2022/04/25 08:29:50;;;;;;;3.00;1.60;;;;;;;8.56;100.00;95640.00;5138940;27;20710;-81
2022/04/25 08:32:17;;;;;;;2.57;1.27;;;;;;;8.59;100.00;95631.47;5143034;27;20221;-81
2022/04/25 08:34:44;;;;;;;3.23;1.33;;;;;;;8.61;100.00;95640.09;5142954;27;20282;-81
2022/04/25 08:37:11;;;;;;;2.77;1.30;;;;;;;8.62;100.00;95633.66;5139559;27;20217;-81
2022/04/25 08:39:40;;;;;;;1.73;1.30;;;;;;;8.70;100.00;95638.69;5145510;27;20202;-81
2022/04/25 08:42:09;;;;;;;1.60;1.10;;;;;;;8.75;100.00;95646.88;5146302;27;20218;-81
2022/04/25 08:44:36;;;;;;;4.53;1.30;;;;;;;8.76;100.00;95643.16;5138856;27;20229;-82
2022/04/25 08:47:07;;;;;;;2.07;1.30;;;;;;;8.81;100.00;95645.94;5156104;27;20229;-82
2022/04/25 08:49:35;;;;;;;1.60;1.50;;;;;;;8.78;100.00;95646.41;5153449;27;20230;-82
2022/04/25 08:52:04;;;;;;;2.10;1.63;;;;;;;8.89;100.00;95642.88;5137641;27;20297;-81
2022/04/25 08:54:34;;;;;;;2.67;1.73;;;;;;;8.96;100.00;95648.94;5141559;27;20198;-82
2022/04/25 08:57:04;;;;;;;4.30;2.07;;;;;;;9.05;100.00;95638.63;5160355;27;20309;-81
2022/04/25 08:59:32;;;;;;;2.80;2.10;;;;;;;9.18;100.00;95649.16;5140780;27;20203;-82
2022/04/25 09:01:59;;;;;;;3.57;1.90;;;;;;;9.20;100.00;95643.50;5149039;27;20316;-82
2022/04/25 09:04:26;;;;;;;2.30;1.40;;;;;;;9.21;100.00;95642.44;5136367;27;20293;-81
2022/04/25 09:06:55;;;;;;;3.67;1.67;;;;;;;9.16;100.00;95647.75;5140929;27;20217;-82
2022/04/25 09:09:22;;;;;;;2.70;1.13;;;;;;;9.25;100.00;95635.53;5139436;27;20204;-81
2022/04/25 09:14:36;;;;;;;2.97;1.40;;;;;;;9.37;100.00;95645.22;5136937;27;20206;-81
2022/04/25 09:17:03;;;;;;;3.00;1.33;;;;;;;9.40;100.00;95650.13;5136554;27;20237;-82
2022/04/25 09:19:31;;;;;;;1.10;1.00;;;;;;;9.40;100.00;95652.81;5135868;27;20194;-82
2022/04/25 09:21:58;;;;;;;1.83;1.00;;;;;;;9.38;100.00;95654.09;5140411;27;20337;-81
2022/04/25 09:24:26;;;;;;;1.80;1.00;;;;;;;9.31;100.00;95642.66;5131005;27;20247;-81
2022/04/25 09:26:55;;;;;;;1.83;1.30;;;;;;;9.41;100.00;95651.75;5124569;27;20473;-82
2022/04/25 09:29:26;;;;;;;1.17;0.80;;;;;;;9.42;100.00;95649.91;5133011;27;20195;-82
2022/04/25 09:31:55;;;;;;;1.77;1.00;;;;;;;9.50;100.00;95649.50;5129286;27;20207;-81
2022/04/25 09:37:06;;;;;;;3.53;1.80;;;;;;;9.48;100.00;95654.31;5104387;27;20207;-83
2022/04/25 09:39:36;;;;;;;1.50;1.10;;;;;;;9.39;100.00;95644.97;5123757;27;20199;-81
2022/04/25 09:42:03;;;;;;;1.63;1.30;;;;;;;9.41;100.00;95650.94;5126878;27;20231;-81
2022/04/25 09:44:54;;;;;;;3.23;1.27;;;;;;;9.41;100.00;95656.34;5126376;27;20202;-80
2022/04/25 09:47:30;;;;;;;2.03;1.50;;;;;;;9.33;100.00;95654.03;5124317;27;20208;-80
2022/04/25 09:50:02;;;;;;;2.43;1.40;;;;;;;9.42;100.00;95649.91;5126325;27;20203;-80
2022/04/25 09:52:30;;;;;;;3.63;1.97;;;;;;;9.54;100.00;95661.44;5126310;27;20196;-81
2022/04/25 09:55:15;;;;;;;2.40;2.00;;;;;;;9.63;100.00;95648.38;5124358;27;20200;-86
2022/04/25 09:57:46;;;;;;;2.90;2.20;;;;;;;9.46;100.00;95643.78;5120730;27;20257;-83
2022/04/25 10:00:50;;;;;;;;;;;;;;;;;;;;;
2022/04/25 10:03:56;;;;;;;;;;;;;;;;;;;;;
2022/04/25 10:06:44;;;;;;;;;;;;;;;;;;;;;
2022/04/25 10:12:37;;;;;;;2.10;1.00;;;;;;;9.47;100.00;95637.31;5121305;27;20212;-83
2022/04/25 10:15:30;;;;;;;1.90;0.97;;;;;;;9.62;100.00;95626.00;5119254;27;20267;-84
2022/04/25 10:18:12;;;;;;;1.47;1.10;;;;;;;9.80;100.00;95617.72;5113541;27;20203;-83
2022/04/25 10:53:06;;;;;;;1.30;0.90;;;;;;;10.84;100.00;95665.81;5029490;28;20347;-85
2022/04/25 10:56:04;;;;;;;2.47;1.67;;;;;;;10.80;100.00;95662.78;5110950;27;20204;-85
2022/04/25 11:10:55;;;;;;;1.80;1.10;;;;;;;10.85;100.00;95683.66;5070849;27;20216;-88
2022/04/25 11:14:34;;;;;;;2.53;1.30;;;;;;;10.89;100.00;95682.88;5097398;27;20208;-86
2022/04/25 11:17:13;;;;;;;1.10;0.90;;;;;;;10.87;100.00;95682.34;5041899;28;20252;-89
2022/04/25 11:19:47;;;;;;;2.83;1.20;;;;;;;10.86;100.00;95685.28;5110703;27;20204;-87
2022/04/25 11:33:52;;;;;;;1.70;1.60;;;;;;;10.95;100.00;95700.00;5054820;28;20221;-84
2022/04/25 11:36:20;;;;;;;1.87;1.60;;;;;;;10.86;100.00;95701.50;5050130;28;20217;-84
2022/04/25 11:41:34;;;;;;;4.17;1.37;;;;;;;10.88;100.00;95710.16;5045122;28;20210;-83
2022/04/25 11:44:01;;;;;;;2.13;1.53;;;;;;;10.73;100.00;95697.22;5058490;28;20202;-83
2022/04/25 11:46:30;;;;;;;1.27;1.17;;;;;;;10.69;100.00;95711.50;5046167;28;20264;-84
2022/04/25 11:48:59;;;;;;;3.43;1.63;;;;;;;10.63;100.00;95696.28;5049915;28;20201;-83
2022/04/25 11:51:28;;;;;;;3.50;1.33;;;;;;;10.60;100.00;95697.59;5043814;28;20232;-83
2022/04/25 11:53:57;;;;;;;6.33;1.20;;;;;;;10.56;100.00;95716.16;5048367;28;20189;-83
2022/04/25 11:56:24;;;;;;;4.43;1.80;;;;;;;10.51;100.00;95710.66;5049276;28;20283;-85
2022/04/25 11:58:52;;;;;;;4.97;1.30;;;;;;;10.50;100.00;95717.13;5045957;28;20221;-85
2022/04/25 12:01:36;;;;;;;11.47;2.23;;;;;;;10.53;100.00;95724.75;5045613;28;20225;-84
2022/04/25 12:04:19;;;;;;;5.43;1.80;;;;;;;10.59;100.00;95733.75;5040878;28;20202;-84
2022/04/25 12:06:54;;;;;;;2.80;1.47;;;;;;;10.56;100.00;95723.41;5052487;28;20197;-85
2022/04/25 12:17:43;;;;;;;2.13;1.53;;;;;;;10.60;100.00;95741.59;5053729;28;20256;-84
2022/04/25 12:20:13;;;;;;;2.30;1.27;;;;;;;10.59;100.00;95745.34;5041275;28;20332;-84
2022/04/25 12:22:51;;;;;;;2.23;1.20;;;;;;;10.61;100.00;95740.53;5046728;28;20221;-83
2022/04/25 12:25:19;;;;;;;3.07;1.30;;;;;;;10.63;100.00;95747.56;5065465;28;20292;-83
2022/04/25 12:28:06;;;;;;;1.57;1.10;;;;;;;10.51;100.00;95742.25;5041676;28;20206;-83
2022/04/25 12:30:48;;;;;;;1.40;1.13;;;;;;;10.59;100.00;95760.75;5041605;28;20220;-83
2022/04/25 12:33:16;;;;;;;1.77;1.30;;;;;;;10.63;100.00;95755.69;5064153;28;20241;-83
2022/04/25 12:35:46;;;;;;;2.60;1.10;;;;;;;10.68;100.00;95759.28;5035472;28;20206;-84
2022/04/25 12:38:38;;;;;;;1.67;1.20;;;;;;;10.63;100.00;95746.50;5053547;28;20198;-83
2022/04/25 12:41:06;;;;;;;1.10;1.00;;;;;;;10.69;100.00;95762.78;5049730;28;20293;-83
2022/04/25 12:43:43;;;;;;;2.67;1.50;;;;;;;10.72;100.00;95762.31;5041724;28;20193;-83
2022/04/25 12:46:12;;;;;;;2.43;1.40;;;;;;;10.72;100.00;95765.81;5040626;28;20205;-83
2022/04/25 12:48:56;;;;;;;3.67;1.60;;;;;;;10.68;100.00;95774.66;5031431;28;20220;-83
2022/04/25 12:51:29;;;;;;;3.17;1.30;;;;;;;10.75;100.00;95765.31;5052905;28;20205;-84
2022/04/25 12:53:57;;;;;;;1.30;1.13;;;;;;;10.81;100.00;95768.91;5037996;28;20230;-83
2022/04/25 12:56:25;;;;;;;1.50;1.40;;;;;;;10.87;100.00;95759.84;5047965;28;20218;-84
2022/04/25 12:58:53;;;;;;;9.87;1.90;;;;;;;10.90;100.00;95762.03;5049540;28;20210;-83
2022/04/25 13:01:32;;;;;;;2.53;1.20;;;;;;;10.90;100.00;95772.84;5049679;28;20263;-84
2022/04/25 13:04:07;;;;;;;2.20;1.40;;;;;;;10.90;100.00;95767.44;5041574;28;20217;-83
2022/04/25 13:06:37;;;;;;;5.67;1.43;;;;;;;10.99;100.00;95763.25;5048554;28;20233;-83
2022/04/25 13:09:06;;;;;;;1.90;1.37;;;;;;;11.02;100.00;95759.25;5037173;28;20198;-83
2022/04/25 13:11:33;;;;;;;2.50;1.60;;;;;;;11.15;100.00;95758.91;5044043;28;20213;-83
2022/04/25 13:14:01;;;;;;;3.23;1.50;;;;;;;11.24;100.00;95762.81;5053861;28;20207;-83
2022/04/25 13:16:29;;;;;;;2.80;1.50;;;;;;;11.36;100.00;95761.66;5052908;28;20236;-83
2022/04/25 13:18:56;;;;;;;2.23;1.50;;;;;;;11.45;100.00;95770.16;5053706;28;20206;-84
2022/04/25 13:21:24;;;;;;;6.57;1.43;;;;;;;11.51;100.00;95773.75;5057617;28;20209;-83
2022/04/25 13:23:53;;;;;;;2.67;1.37;;;;;;;11.59;100.00;95776.00;5043440;28;20222;-83
2022/04/25 13:26:21;;;;;;;2.63;2.00;;;;;;;11.57;100.00;95775.47;5063409;28;20234;-84
2022/04/25 13:28:49;;;;;;;1.93;1.70;;;;;;;11.54;100.00;95774.06;5048809;28;20197;-83
2022/04/25 13:31:17;;;;;;;1.60;1.50;;;;;;;11.56;100.00;95776.53;5045666;28;20205;-84
2022/04/25 13:33:44;;;;;;;1.90;1.57;;;;;;;11.55;100.00;95780.31;5050801;28;20262;-83
2022/04/25 13:36:11;;;;;;;2.40;1.80;;;;;;;11.61;100.00;95773.88;5033689;28;20216;-83